Terminal Aerodrome Forecast
Issued by NWS Glasgow, MT

Home | Current Version | Previous Version | Text Only | Print | Product List | Glossary On
Versions: 1 2 3 4 5 6 7 8 9 10 11 12
000
FTUS45 KGGW 260037 RRA
TAFGGW
TAF
KGGW 260037Z 2601/2624 31005KT P6SM SCT120
     FM260600 36005KT P6SM BKN150
     FM260900 35004KT P6SM SCT130
     FM261200 32004KT P6SM BKN070 PROB30 2612/2615 6SM -SHRA OVC025
     FM261500 31006KT P6SM BKN030 PROB30 2615/2618 6SM -SHRA OVC015
     FM261800 31010KT P6SM BKN045 PROB30 2618/2624 6SM -SHRA OVC025=

USA.gov is the U.S. government's official web portal to all federal, state and local government web resources and services.